Time;durP1;ratioP1;P1;durP2;ratioP2;P2;SDS_P1;SDS_P2;PMS_P1;PMS_P2;Temp;Humidity;BMP_temperature;BMP_pressure;BME280_temperature;BME280_humidity;BME280_pressure;Samples;Min_cycle;Max_cycle;Signal;HPM_P1;HPM_P2
2022/08/15 00:01:01;;;;;;;21.83;14.27;;;;;;;22.24;100.00;100474.41;7374381;19;20030;-74
2022/08/15 00:03:38;;;;;;;26.17;16.25;;;;;;;22.11;100.00;100474.03;7381105;19;20014;-75
2022/08/15 00:06:32;;;;;;;22.90;14.90;;;;;;;22.04;100.00;100460.97;7366289;19;20011;-73
2022/08/15 00:09:12;;;;;;;22.70;15.45;;;;;;;22.03;100.00;100459.25;7384535;19;20007;-73
2022/08/15 00:11:46;;;;;;;26.50;15.82;;;;;;;22.00;100.00;100464.66;7382609;19;20018;-73
2022/08/15 00:14:25;;;;;;;23.42;15.48;;;;;;;21.97;100.00;100448.75;7377793;19;20011;-73
2022/08/15 00:17:11;;;;;;;25.08;16.05;;;;;;;22.02;100.00;100454.81;7383494;19;20074;-75
2022/08/15 00:19:47;;;;;;;24.80;15.98;;;;;;;22.00;100.00;100462.00;7381171;19;20010;-75
2022/08/15 00:22:19;;;;;;;21.70;14.50;;;;;;;21.93;100.00;100453.34;7381678;19;20062;-74
2022/08/15 00:24:51;;;;;;;24.70;15.18;;;;;;;21.94;100.00;100460.44;7388117;19;21155;-73
2022/08/15 00:27:23;;;;;;;27.23;16.15;;;;;;;21.87;100.00;100459.81;7386895;19;20027;-74
2022/08/15 00:30:02;;;;;;;22.67;15.95;;;;;;;21.81;100.00;100449.41;7390015;19;20394;-73
2022/08/15 00:32:36;;;;;;;20.50;14.13;;;;;;;21.79;100.00;100437.03;7382677;19;20089;-73
2022/08/15 00:35:39;;;;;;;22.88;14.90;;;;;;;21.74;100.00;100423.00;7383945;19;20014;-75
2022/08/15 00:38:11;;;;;;;22.88;14.80;;;;;;;21.71;100.00;100425.81;7386148;19;20543;-73
2022/08/15 00:43:47;;;;;;;22.88;15.15;;;;;;;21.67;100.00;100437.53;7376594;19;20011;-73
2022/08/15 00:46:20;;;;;;;28.47;16.23;;;;;;;21.63;100.00;100442.09;7379308;19;20039;-73
2022/08/15 00:48:52;;;;;;;21.67;15.35;;;;;;;21.56;100.00;100435.25;7377878;19;20039;-73
2022/08/15 00:51:36;;;;;;;23.33;15.43;;;;;;;21.52;100.00;100438.97;7375177;19;20076;-73
2022/08/15 00:54:11;;;;;;;25.02;15.60;;;;;;;21.48;100.00;100437.34;7371919;19;20455;-74
2022/08/15 00:57:07;;;;;;;22.90;14.93;;;;;;;21.44;100.00;100428.59;7379048;19;20006;-73
2022/08/15 00:59:42;;;;;;;26.88;16.42;;;;;;;21.43;100.00;100429.53;7379853;19;20551;-72
2022/08/15 01:02:20;;;;;;;26.77;15.75;;;;;;;21.43;100.00;100434.00;7377464;19;20017;-74
2022/08/15 01:04:53;;;;;;;23.15;15.13;;;;;;;21.42;100.00;100432.25;7377326;19;20031;-73
2022/08/15 01:07:36;;;;;;;24.00;15.88;;;;;;;21.39;100.00;100429.69;7377095;19;20007;-73
2022/08/15 01:10:09;;;;;;;25.83;16.48;;;;;;;21.37;100.00;100432.41;7379417;19;20018;-74
2022/08/15 01:12:54;;;;;;;23.58;15.15;;;;;;;21.39;100.00;100435.03;7376975;19;20499;-72
2022/08/15 01:15:29;;;;;;;22.73;14.90;;;;;;;21.43;100.00;100426.00;7379779;19;20018;-74
2022/08/15 01:18:15;;;;;;;27.15;16.77;;;;;;;21.52;100.00;100433.63;7374243;19;20006;-74
2022/08/15 01:21:13;;;;;;;27.90;17.45;;;;;;;21.54;100.00;100431.78;7374323;19;20252;-74
2022/08/15 01:24:01;;;;;;;24.67;17.35;;;;;;;21.57;100.00;100423.66;7380716;19;20031;-74
2022/08/15 01:26:40;;;;;;;24.52;15.52;;;;;;;21.63;100.00;100418.09;7376639;19;20011;-74
2022/08/15 01:29:18;;;;;;;23.80;16.05;;;;;;;21.68;100.00;100416.13;7373949;19;20011;-75
2022/08/15 01:31:48;;;;;;;26.30;15.82;;;;;;;21.71;100.00;100417.78;7378177;19;20051;-74
2022/08/15 01:34:19;;;;;;;21.90;15.60;;;;;;;21.73;100.00;100407.91;7374875;19;20011;-74
2022/08/15 01:36:51;;;;;;;23.40;15.00;;;;;;;21.77;100.00;100420.22;7377771;19;20070;-73
2022/08/15 01:39:32;;;;;;;21.63;14.35;;;;;;;21.81;100.00;100422.72;7373987;19;20415;-73
2022/08/15 01:42:14;;;;;;;22.48;14.40;;;;;;;21.80;100.00;100422.78;7377445;19;20285;-73
2022/08/15 01:44:50;;;;;;;21.83;14.30;;;;;;;21.83;100.00;100420.84;7376541;19;20006;-74
2022/08/15 01:47:37;;;;;;;23.15;14.30;;;;;;;21.80;100.00;100418.31;7376619;19;20124;-74
2022/08/15 01:50:12;;;;;;;20.77;14.48;;;;;;;21.78;100.00;100416.63;7381441;19;20074;-74
2022/08/15 01:53:07;;;;;;;21.13;13.98;;;;;;;21.77;100.00;100410.41;7374555;19;20015;-74
2022/08/15 01:55:52;;;;;;;21.77;14.32;;;;;;;21.75;100.00;100412.28;7375236;19;20017;-73
2022/08/15 01:58:26;;;;;;;23.42;14.63;;;;;;;21.72;100.00;100406.19;7377432;19;20022;-73
2022/08/15 02:01:06;;;;;;;24.58;16.08;;;;;;;21.70;100.00;100411.59;7381196;19;20078;-72
2022/08/15 02:03:40;;;;;;;22.85;15.50;;;;;;;21.66;100.00;100411.75;7388457;19;20006;-74
2022/08/15 02:06:22;;;;;;;26.35;17.02;;;;;;;21.62;100.00;100416.34;7386145;19;20017;-75
2022/08/15 02:09:06;;;;;;;24.67;16.45;;;;;;;21.59;100.00;100420.94;7383744;19;20022;-73
2022/08/15 02:11:57;;;;;;;26.45;17.08;;;;;;;21.54;100.00;100421.97;7382987;19;20011;-72
2022/08/15 02:14:51;;;;;;;25.80;15.65;;;;;;;21.51;100.00;100432.78;7384146;19;20007;-74
2022/08/15 02:17:22;;;;;;;;;;;;;;;21.48;100.00;100430.22;7386062;19;20290;-72
2022/08/15 02:19:54;;;;;;;21.08;13.95;;;;;;;21.50;100.00;100438.16;7385789;19;19918;-74
2022/08/15 02:22:26;;;;;;;22.25;14.20;;;;;;;21.47;100.00;100428.47;7382844;19;20014;-73
2022/08/15 02:25:04;;;;;;;20.10;12.35;;;;;;;21.44;100.00;100417.06;7384684;19;20044;-74
2022/08/15 02:27:41;;;;;;;19.38;11.75;;;;;;;21.44;100.00;100401.91;7380145;19;20054;-74
2022/08/15 02:30:18;;;;;;;17.13;12.43;;;;;;;21.47;100.00;100384.91;7385103;19;20035;-74
2022/08/15 02:32:49;;;;;;;16.90;10.98;;;;;;;21.49;100.00;100388.41;7380859;19;20014;-74
2022/08/15 02:35:20;;;;;;;16.77;11.13;;;;;;;21.52;100.00;100398.97;7382217;19;20011;-74
2022/08/15 02:37:55;;;;;;;16.13;10.48;;;;;;;21.56;100.00;100391.69;7383117;19;20010;-74
2022/08/15 02:40:42;;;;;;;16.35;9.82;;;;;;;21.56;100.00;100387.22;7382910;19;20021;-74
2022/08/15 02:43:21;;;;;;;14.95;9.50;;;;;;;21.62;100.00;100394.13;7385245;19;20050;-75
2022/08/15 02:45:54;;;;;;;14.20;9.20;;;;;;;21.66;100.00;100401.97;7383369;19;20010;-74
2022/08/15 02:48:43;;;;;;;14.43;9.25;;;;;;;21.69;100.00;100391.16;7382784;19;20011;-75
2022/08/15 02:51:35;;;;;;;17.25;8.80;;;;;;;21.72;100.00;100391.03;7382454;19;20771;-74
2022/08/15 02:54:26;;;;;;;12.30;8.68;;;;;;;21.69;100.00;100385.81;7379569;19;20048;-74
2022/08/15 02:57:09;;;;;;;13.05;9.35;;;;;;;21.69;100.00;100390.28;7383140;19;20073;-75
2022/08/15 02:59:43;;;;;;;13.32;9.02;;;;;;;21.66;100.00;100390.41;7386520;19;20003;-75
2022/08/15 03:02:15;;;;;;;13.80;8.77;;;;;;;21.65;100.00;100389.53;7376703;19;20007;-74
2022/08/15 03:05:06;;;;;;;14.23;9.45;;;;;;;21.61;100.00;100379.06;7382751;19;20085;-74
2022/08/15 03:07:44;;;;;;;13.02;8.35;;;;;;;21.61;100.00;100376.38;7384051;19;20014;-74
2022/08/15 03:10:14;;;;;;;16.65;9.00;;;;;;;21.62;100.00;100386.13;7380820;19;20182;-75
2022/08/15 03:13:02;;;;;;;13.07;9.20;;;;;;;21.59;100.00;100387.13;7381906;19;20366;-75
2022/08/15 03:15:45;;;;;;;14.68;9.68;;;;;;;21.54;100.00;100386.44;7384458;19;20011;-76
2022/08/15 03:18:41;;;;;;;12.35;9.52;;;;;;;21.53;100.00;100379.34;7380988;19;20011;-74
2022/08/15 03:21:20;;;;;;;12.60;9.80;;;;;;;21.53;100.00;100384.69;7377961;19;20015;-74
2022/08/15 03:23:51;;;;;;;16.15;10.10;;;;;;;21.53;100.00;100390.88;7381402;19;20015;-74
2022/08/15 03:26:25;;;;;;;13.90;9.73;;;;;;;21.50;100.00;100382.13;7381954;19;20015;-76
2022/08/15 03:29:18;;;;;;;18.30;10.82;;;;;;;21.40;100.00;100378.09;7382534;19;20012;-74
2022/08/15 03:31:51;;;;;;;15.60;11.02;;;;;;;21.38;100.00;100366.59;7383472;19;20533;-74
2022/08/15 03:34:26;;;;;;;19.17;12.25;;;;;;;21.30;100.00;100363.38;7383017;19;20023;-75
2022/08/15 03:37:01;;;;;;;15.48;11.55;;;;;;;21.26;100.00;100372.41;7382365;19;20014;-74
2022/08/15 03:39:32;;;;;;;16.57;11.63;;;;;;;21.23;100.00;100376.06;7383673;19;20019;-75
2022/08/15 03:42:11;;;;;;;24.30;12.47;;;;;;;21.23;100.00;100381.41;7382847;19;20018;-77
2022/08/15 03:44:48;;;;;;;17.33;13.68;;;;;;;21.16;100.00;100387.84;7388390;19;20074;-76
2022/08/15 03:47:21;;;;;;;17.20;11.35;;;;;;;21.11;100.00;100392.47;7388115;19;20014;-74
2022/08/15 03:49:54;;;;;;;21.35;13.45;;;;;;;21.11;100.00;100393.34;7390808;19;20031;-75
2022/08/15 03:52:53;;;;;;;18.15;12.02;;;;;;;21.03;100.00;100390.09;7385184;19;20143;-75
2022/08/15 03:55:27;;;;;;;19.63;12.57;;;;;;;21.00;100.00;100400.88;7388758;19;20325;-75
2022/08/15 03:58:04;;;;;;;15.30;11.65;;;;;;;20.99;100.00;100399.13;7385329;19;20011;-75
2022/08/15 04:00:44;;;;;;;19.60;13.50;;;;;;;20.96;100.00;100419.69;7391211;19;20017;-75
2022/08/15 04:03:28;;;;;;;21.17;15.15;;;;;;;20.93;100.00;100410.03;7385666;19;20017;-75
2022/08/15 04:06:07;;;;;;;19.90;14.57;;;;;;;20.86;100.00;100413.84;7389338;19;20031;-75
2022/08/15 04:08:47;;;;;;;19.67;14.18;;;;;;;20.77;100.00;100408.88;7387196;19;20022;-75
2022/08/15 04:11:38;;;;;;;20.33;13.32;;;;;;;20.78;100.00;100422.13;7379663;19;20010;-75
2022/08/15 04:14:09;;;;;;;20.58;13.18;;;;;;;20.74;100.00;100398.31;7381419;19;20645;-75
2022/08/15 04:17:06;;;;;;;16.20;12.63;;;;;;;20.74;100.00;100404.50;7384171;19;20582;-75
2022/08/15 04:19:46;;;;;;;17.38;13.05;;;;;;;20.69;100.00;100401.13;7382524;19;20003;-75
2022/08/15 04:22:31;;;;;;;22.05;13.88;;;;;;;20.69;100.00;100408.25;7380334;19;20032;-77
2022/08/15 04:25:29;;;;;;;20.77;12.93;;;;;;;20.71;100.00;100409.06;7385790;19;20010;-75
2022/08/15 04:28:09;;;;;;;23.77;13.43;;;;;;;20.73;100.00;100417.88;7384439;19;20037;-75
2022/08/15 04:31:04;;;;;;;19.80;12.90;;;;;;;20.73;100.00;100425.88;7381815;19;20010;-74
2022/08/15 04:33:38;;;;;;;19.67;13.02;;;;;;;20.74;100.00;100427.63;7384946;19;20081;-75
2022/08/15 04:36:36;;;;;;;16.83;12.43;;;;;;;20.72;100.00;100421.47;7385710;19;20011;-76
2022/08/15 04:39:11;;;;;;;17.20;11.60;;;;;;;20.69;100.00;100421.59;7381625;19;20339;-74
2022/08/15 04:41:42;;;;;;;15.30;10.85;;;;;;;20.68;100.00;100427.84;7382391;19;20010;-74
2022/08/15 04:44:23;;;;;;;17.25;10.27;;;;;;;20.66;100.00;100427.88;7382268;19;20010;-73
2022/08/15 04:46:57;;;;;;;15.52;9.40;;;;;;;20.66;100.00;100413.69;7378271;19;20468;-74
2022/08/15 04:49:35;;;;;;;13.68;7.55;;;;;;;20.62;100.00;100410.28;7376382;19;20041;-74
2022/08/15 04:52:11;;;;;;;14.73;7.68;;;;;;;20.61;100.00;100413.84;7375979;19;20019;-76
2022/08/15 04:54:45;;;;;;;11.43;7.55;;;;;;;20.61;100.00;100407.66;7379654;19;20011;-75
2022/08/15 05:00:17;;;;;;;11.85;7.18;;;;;;;20.64;100.00;100392.44;7379854;19;20018;-75
2022/08/15 05:03:03;;;;;;;11.95;6.68;;;;;;;20.66;100.00;100389.72;7382306;19;20042;-75
2022/08/15 05:05:41;;;;;;;9.98;6.03;;;;;;;20.68;100.00;100398.53;7382143;19;20010;-75
2022/08/15 05:08:16;;;;;;;14.25;6.68;;;;;;;20.67;100.00;100397.66;7379850;19;20127;-74
2022/08/15 05:10:54;;;;;;;10.02;6.15;;;;;;;20.68;100.00;100403.84;7384361;19;20040;-75
2022/08/15 05:13:27;;;;;;;12.68;6.28;;;;;;;20.67;100.00;100402.13;7379134;19;20010;-75
2022/08/15 05:16:07;;;;;;;11.88;6.07;;;;;;;20.71;100.00;100409.94;7386599;19;20522;-75
2022/08/15 05:18:42;;;;;;;10.25;5.95;;;;;;;20.71;100.00;100414.41;7385399;19;20031;-75
2022/08/15 05:21:16;;;;;;;10.70;6.45;;;;;;;20.67;100.00;100412.78;7380466;19;20035;-73
2022/08/15 05:23:47;;;;;;;10.80;6.28;;;;;;;20.74;100.00;100414.31;7379904;19;20562;-74
2022/08/15 05:26:25;;;;;;;13.98;7.25;;;;;;;20.71;100.00;100415.28;7381434;19;20040;-74
2022/08/15 05:29:15;;;;;;;11.25;6.93;;;;;;;20.73;100.00;100413.44;7379578;19;20055;-73
2022/08/15 05:31:46;;;;;;;11.73;6.65;;;;;;;20.68;100.00;100426.03;7381876;19;20007;-75
2022/08/15 05:34:19;;;;;;;9.75;6.68;;;;;;;20.67;100.00;100429.63;7380353;19;20042;-74
2022/08/15 05:37:09;;;;;;;13.38;6.28;;;;;;;20.68;100.00;100433.16;7380871;19;20088;-73
2022/08/15 05:39:41;;;;;;;12.07;6.97;;;;;;;20.66;100.00;100427.03;7383847;19;20014;-74
2022/08/15 05:42:27;;;;;;;11.52;7.22;;;;;;;20.64;100.00;100437.72;7382470;19;20010;-73
2022/08/15 05:45:12;;;;;;;11.23;6.97;;;;;;;20.61;100.00;100434.31;7385613;19;20013;-73
2022/08/15 05:48:15;;;;;;;12.68;7.47;;;;;;;20.81;100.00;100431.78;7381741;19;20471;-73
2022/08/15 05:50:57;;;;;;;11.88;6.43;;;;;;;21.03;100.00;100440.75;7381160;19;20032;-73
2022/08/15 05:53:37;;;;;;;10.95;6.43;;;;;;;21.07;100.00;100431.72;7373071;19;20028;-73
2022/08/15 05:56:23;;;;;;;12.57;6.85;;;;;;;21.12;100.00;100427.09;7383164;19;20507;-74
2022/08/15 05:59:02;;;;;;;11.70;6.60;;;;;;;21.21;100.00;100426.78;7375397;19;20014;-74
2022/08/15 06:01:41;;;;;;;15.27;7.07;;;;;;;21.25;100.00;100422.22;7376369;19;20074;-74
2022/08/15 06:04:43;;;;;;;12.90;6.95;;;;;;;21.34;100.00;100419.19;7378187;19;20022;-77
2022/08/15 06:07:17;;;;;;;13.02;6.80;;;;;;;21.41;100.00;100411.84;7378403;19;20010;-73
2022/08/15 06:09:54;;;;;;;13.68;7.03;;;;;;;21.37;100.00;100411.09;7378220;19;20019;-76
2022/08/15 06:12:28;;;;;;;12.43;7.25;;;;;;;21.40;100.00;100410.09;7340045;19;20568;-75
2022/08/15 06:15:15;;;;;;;13.63;7.10;;;;;;;21.41;100.00;100402.03;7370541;19;20189;-74
2022/08/15 06:17:51;;;;;;;14.70;7.63;;;;;;;21.42;100.00;100402.91;7370719;19;20006;-74
2022/08/15 06:20:37;;;;;;;14.65;8.20;;;;;;;21.50;100.00;100412.34;7376484;19;20059;-73
2022/08/15 06:23:29;;;;;;;12.52;7.65;;;;;;;21.48;100.00;100416.88;7375328;19;20053;-74
2022/08/15 06:26:19;;;;;;;12.60;7.30;;;;;;;21.54;100.00;100413.09;7377655;19;20010;-73
2022/08/15 06:29:12;;;;;;;12.20;7.82;;;;;;;21.60;100.00;100407.53;7377676;19;20015;-73
2022/08/15 06:31:53;;;;;;;12.50;8.00;;;;;;;21.57;100.00;100418.31;7376527;19;20031;-74
2022/08/15 06:34:42;;;;;;;14.18;7.68;;;;;;;21.59;100.00;100427.13;7375816;19;20034;-75
2022/08/15 06:37:34;;;;;;;12.55;7.72;;;;;;;21.65;100.00;100416.22;7376867;19;20475;-74
2022/08/15 06:40:31;;;;;;;13.07;8.05;;;;;;;21.62;100.00;100408.34;7375860;19;20341;-74
2022/08/15 06:43:12;;;;;;;19.45;8.80;;;;;;;21.63;100.00;100418.09;7375357;19;20022;-74
2022/08/15 06:45:48;;;;;;;15.15;7.70;;;;;;;21.61;100.00;100419.94;7377116;19;20010;-74
2022/08/15 06:48:25;;;;;;;17.52;7.63;;;;;;;21.65;100.00;100424.25;7382735;19;20010;-74
2022/08/15 06:51:18;;;;;;;14.13;7.45;;;;;;;21.63;100.00;100418.09;7381568;19;20833;-75
2022/08/15 06:53:55;;;;;;;11.50;6.78;;;;;;;21.66;100.00;100407.28;7374854;19;20018;-76
2022/08/15 06:56:37;;;;;;;11.88;7.15;;;;;;;21.65;100.00;100434.91;7375943;19;20006;-74
2022/08/15 06:59:16;;;;;;;14.13;6.88;;;;;;;21.64;100.00;100426.97;7379687;19;20491;-73
2022/08/15 07:02:19;;;;;;;12.98;7.05;;;;;;;21.66;99.69;100423.31;7379074;19;20084;-77
2022/08/15 07:05:05;;;;;;;10.25;6.72;;;;;;;21.66;99.71;100428.66;7381964;19;20059;-76
2022/08/15 07:07:46;;;;;;;12.45;6.72;;;;;;;21.70;100.00;100432.06;7381663;19;20006;-75
2022/08/15 07:10:29;;;;;;;10.63;6.82;;;;;;;21.77;100.00;100434.44;7382046;19;20010;-75
2022/08/15 07:13:05;;;;;;;12.43;7.40;;;;;;;21.79;99.86;100443.25;7379678;19;20007;-77
2022/08/15 07:15:49;;;;;;;11.48;6.70;;;;;;;21.81;100.00;100449.41;7382618;19;20037;-75
2022/08/15 07:18:34;;;;;;;12.07;6.90;;;;;;;21.88;100.00;100456.22;7376371;19;20025;-74
2022/08/15 07:21:10;;;;;;;12.43;7.45;;;;;;;21.82;100.00;100444.94;7377634;19;20018;-75
2022/08/15 07:24:10;;;;;;;14.13;7.75;;;;;;;21.89;100.00;100441.06;7385289;19;20065;-77
2022/08/15 07:27:12;;;;;;;10.43;6.50;;;;;;;21.95;100.00;100439.94;7380023;19;20078;-75
2022/08/15 07:29:45;;;;;;;11.43;7.25;;;;;;;21.89;100.00;100419.69;7385379;19;20015;-77
2022/08/15 07:32:29;;;;;;;12.40;6.82;;;;;;;21.93;100.00;100426.66;7389849;19;20027;-78
2022/08/15 07:35:21;;;;;;;10.25;7.43;;;;;;;21.87;100.00;100427.78;7392040;19;20018;-79
2022/08/15 07:38:00;;;;;;;10.98;7.35;;;;;;;21.72;100.00;100416.88;7389004;19;20011;-74
2022/08/15 07:40:34;;;;;;;11.85;8.02;;;;;;;21.69;100.00;100417.84;7388531;19;20086;-74
2022/08/15 07:43:28;;;;;;;10.82;7.70;;;;;;;21.86;100.00;100409.16;7389964;19;20035;-77
2022/08/15 07:46:12;;;;;;;16.60;8.90;;;;;;;21.88;100.00;100407.28;7383346;19;20022;-73
2022/08/15 07:49:07;;;;;;;12.38;8.60;;;;;;;21.91;100.00;100411.63;7383041;19;20389;-75
2022/08/15 07:51:45;;;;;;;15.15;8.23;;;;;;;21.87;100.00;100410.88;7381716;19;20093;-77
2022/08/15 07:54:28;;;;;;;14.65;9.05;;;;;;;21.93;100.00;100415.09;7378210;19;20318;-74
2022/08/15 07:57:28;;;;;;;14.52;8.90;;;;;;;21.81;100.00;100403.16;7378968;19;20014;-73
2022/08/15 08:00:26;;;;;;;14.85;9.30;;;;;;;21.87;100.00;100392.19;7380118;19;20003;-76
2022/08/15 08:03:22;;;;;;;15.88;8.82;;;;;;;21.95;100.00;100405.25;7383741;19;20045;-73
2022/08/15 08:06:08;;;;;;;14.05;9.40;;;;;;;21.99;100.00;100409.53;7384102;19;20471;-73
2022/08/15 08:09:19;;;;;;;14.82;8.75;;;;;;;22.13;100.00;100412.53;7368320;19;20058;-73
2022/08/15 08:12:05;;;;;;;13.98;8.90;;;;;;;22.24;100.00;100410.28;7372699;19;20020;-75
2022/08/15 08:14:47;;;;;;;15.85;9.55;;;;;;;22.43;100.00;100421.06;7385374;19;20006;-78
2022/08/15 08:17:24;;;;;;;15.70;10.10;;;;;;;22.35;100.00;100424.06;7379781;19;20019;-76
2022/08/15 08:20:22;;;;;;;16.77;10.80;;;;;;;22.40;100.00;100430.09;7378937;19;20088;-78
2022/08/15 08:23:04;;;;;;;20.10;11.88;;;;;;;22.29;100.00;100429.66;7384798;19;20006;-78
2022/08/15 08:25:42;;;;;;;14.18;9.57;;;;;;;22.44;100.00;100423.69;7377513;19;20055;-77
2022/08/15 08:28:42;;;;;;;19.48;11.52;;;;;;;22.45;100.00;100427.22;7378021;19;21839;-76
2022/08/15 08:31:21;;;;;;;18.33;11.10;;;;;;;22.54;100.00;100423.28;7375970;19;20049;-76
2022/08/15 08:34:08;;;;;;;18.48;12.43;;;;;;;22.48;100.00;100441.31;7375449;19;20018;-74
2022/08/15 08:36:52;;;;;;;18.13;11.73;;;;;;;22.43;100.00;100445.13;7375245;19;20006;-75
2022/08/15 08:39:55;;;;;;;18.55;11.90;;;;;;;22.38;100.00;100450.66;7375425;19;20107;-75
2022/08/15 08:42:43;;;;;;;18.30;12.77;;;;;;;22.18;100.00;100448.81;7375814;19;20101;-75
2022/08/15 08:45:32;;;;;;;18.83;13.02;;;;;;;22.14;100.00;100446.31;7378158;19;20022;-76
2022/08/15 08:48:19;;;;;;;22.92;12.95;;;;;;;22.17;100.00;100452.41;7376738;19;20013;-74
2022/08/15 08:51:08;;;;;;;21.98;13.60;;;;;;;22.15;100.00;100458.75;7377845;19;19998;-76
2022/08/15 08:53:48;;;;;;;24.33;14.88;;;;;;;22.12;100.00;100469.56;7380685;19;20027;-74
2022/08/15 08:56:31;;;;;;;21.88;13.43;;;;;;;22.27;100.00;100460.91;7379836;19;20014;-76
2022/08/15 08:59:17;;;;;;;28.45;16.25;;;;;;;22.15;100.00;100458.75;7381250;19;20073;-75
2022/08/15 09:01:52;;;;;;;;;;;;;;;22.31;100.00;100465.19;7384965;19;20006;-75
2022/08/15 09:04:27;;;;;;;21.45;13.32;;;;;;;22.53;100.00;100459.84;7378359;19;20332;-74
2022/08/15 09:07:03;;;;;;;22.90;14.68;;;;;;;22.81;100.00;100459.56;7385644;19;20074;-78
2022/08/15 09:09:48;;;;;;;24.40;16.35;;;;;;;23.10;100.00;100455.59;7387364;19;20279;-77
2022/08/15 09:15:19;;;;;;;24.27;15.77;;;;;;;23.62;100.00;100456.81;7386621;19;20048;-76
2022/08/15 09:18:17;;;;;;;25.73;16.77;;;;;;;23.67;100.00;100461.94;7376810;19;20428;-75
2022/08/15 09:20:51;;;;;;;28.15;17.48;;;;;;;23.83;100.00;100456.75;7385482;19;20011;-78
2022/08/15 09:23:22;;;;;;;25.90;18.00;;;;;;;23.79;100.00;100456.88;7387858;19;20013;-78
2022/08/15 09:26:10;;;;;;;26.27;18.13;;;;;;;23.90;100.00;100464.41;7385506;19;20002;-78
2022/08/15 09:29:06;;;;;;;28.58;18.10;;;;;;;23.82;100.00;100457.69;7384332;19;20405;-76
2022/08/15 09:32:10;;;;;;;29.65;18.60;;;;;;;23.86;100.00;100456.59;7383765;19;20015;-78
2022/08/15 09:35:37;;;;;;;32.53;18.05;;;;;;;23.91;100.00;100470.63;7389307;19;20014;-77
2022/08/15 09:38:29;;;;;;;26.92;17.88;;;;;;;23.86;100.00;100461.94;7391853;19;20018;-77
2022/08/15 09:41:13;;;;;;;23.05;16.77;;;;;;;23.78;100.00;100467.66;7391534;19;20107;-80
2022/08/15 09:44:23;;;;;;;25.08;16.98;;;;;;;23.99;100.00;100465.75;7392396;19;20276;-79
2022/08/15 09:47:39;;;;;;;26.27;17.17;;;;;;;23.98;98.40;100464.88;7392332;19;20010;-75
2022/08/15 09:50:46;;;;;;;27.33;18.85;;;;;;;24.01;99.56;100464.72;7381916;19;20015;-75
2022/08/15 09:53:31;;;;;;;25.42;16.73;;;;;;;24.19;98.84;100471.00;7377266;19;20011;-76
2022/08/15 09:56:25;;;;;;;28.85;17.67;;;;;;;24.25;98.07;100470.72;7380249;19;20014;-77
2022/08/15 09:59:08;;;;;;;26.83;16.27;;;;;;;24.53;97.65;100474.75;7384350;19;20022;-77
2022/08/15 10:01:50;;;;;;;28.73;17.15;;;;;;;24.39;96.18;100478.97;7376346;19;20055;-77
2022/08/15 10:04:43;;;;;;;24.25;16.58;;;;;;;24.54;97.56;100476.47;7382840;19;20078;-78
2022/08/15 10:07:51;;;;;;;30.05;17.73;;;;;;;24.61;96.42;100478.78;7378039;19;20292;-78
2022/08/15 10:10:39;;;;;;;27.58;16.30;;;;;;;24.82;96.13;100481.31;7378189;19;20367;-78
2022/08/15 10:13:21;;;;;;;28.25;18.42;;;;;;;24.84;95.72;100477.59;7380156;19;20043;-76
2022/08/15 10:15:55;;;;;;;26.35;16.50;;;;;;;25.09;94.90;100474.50;7373771;19;20028;-74
2022/08/15 10:18:56;;;;;;;27.15;17.15;;;;;;;24.88;94.74;100473.81;7376391;19;20351;-76
2022/08/15 10:21:35;;;;;;;25.90;15.93;;;;;;;24.90;94.62;100481.78;7372245;19;20359;-75
2022/08/15 10:24:29;;;;;;;23.70;15.80;;;;;;;24.69;92.52;100481.06;7385711;19;20017;-76
2022/08/15 10:27:17;;;;;;;23.02;16.10;;;;;;;25.05;92.16;100481.88;7382831;19;20082;-75
2022/08/15 10:29:51;;;;;;;21.40;13.15;;;;;;;25.37;91.88;100477.47;7384449;19;20041;-79
2022/08/15 10:32:43;;;;;;;22.73;14.35;;;;;;;25.70;90.51;100474.81;7397867;19;20011;-80
2022/08/15 10:35:41;;;;;;;22.95;15.13;;;;;;;25.49;87.76;100484.00;7395031;19;20018;-78
2022/08/15 10:38:23;;;;;;;22.38;15.68;;;;;;;25.40;88.71;100487.19;7397215;19;20020;-79
2022/08/15 10:41:17;;;;;;;24.25;14.52;;;;;;;25.43;86.79;100489.69;7398521;19;20064;-76
2022/08/15 10:44:00;;;;;;;18.92;12.45;;;;;;;26.08;86.93;100483.38;7394342;19;20015;-76
2022/08/15 10:46:53;;;;;;;20.92;15.43;;;;;;;26.74;84.88;100468.84;7390382;19;20067;-77
2022/08/15 10:49:38;;;;;;;20.70;12.82;;;;;;;26.74;79.27;100473.34;7391742;19;20090;-76
2022/08/15 10:52:36;;;;;;;18.75;12.40;;;;;;;26.66;80.00;100468.44;7382720;19;20014;-75
2022/08/15 10:55:24;;;;;;;19.75;13.32;;;;;;;26.38;81.62;100471.88;7381487;19;20516;-74
2022/08/15 10:58:21;;;;;;;19.75;12.98;;;;;;;26.34;83.10;100473.00;7382136;19;20045;-76
2022/08/15 11:01:07;;;;;;;19.75;13.23;;;;;;;26.23;83.10;100465.53;7385384;19;20014;-77
2022/08/15 11:03:46;;;;;;;19.67;14.10;;;;;;;26.15;83.90;100467.78;7380477;19;20010;-77
2022/08/15 11:06:45;;;;;;;20.83;13.23;;;;;;;26.23;83.33;100473.59;7377885;19;20475;-76
2022/08/15 11:09:25;;;;;;;22.95;14.27;;;;;;;26.06;85.26;100476.38;7382757;19;20010;-76
2022/08/15 11:12:05;;;;;;;25.33;15.80;;;;;;;25.81;85.59;100484.09;7381364;19;20011;-75
2022/08/15 11:14:45;;;;;;;19.67;12.10;;;;;;;26.29;83.42;100485.81;7378000;19;20020;-75
2022/08/15 11:17:18;;;;;;;;;;;;;;;26.24;82.01;100471.75;7386959;19;20018;-75
2022/08/15 11:19:53;;;;;;;18.65;12.98;;;;;;;26.00;84.51;100482.13;7384614;19;19963;-75
2022/08/15 11:22:52;;;;;;;19.17;13.55;;;;;;;25.87;83.84;100486.44;7384764;19;20018;-76
2022/08/15 11:25:29;;;;;;;18.95;12.02;;;;;;;25.92;84.67;100489.75;7388335;19;20014;-76
2022/08/15 11:28:08;;;;;;;23.38;13.65;;;;;;;25.94;84.13;100491.38;7387586;19;20006;-75
2022/08/15 11:31:09;;;;;;;18.33;11.93;;;;;;;26.26;85.13;100485.97;7381322;19;20006;-74
2022/08/15 11:33:45;;;;;;;16.48;11.82;;;;;;;26.29;84.46;100491.19;7380695;19;20045;-75
2022/08/15 11:36:24;;;;;;;22.60;13.70;;;;;;;26.22;85.94;100487.97;7384972;19;20375;-74
2022/08/15 11:39:02;;;;;;;22.70;15.13;;;;;;;25.93;85.04;100496.84;7386667;19;20208;-78
2022/08/15 11:41:52;;;;;;;25.33;16.25;;;;;;;25.66;85.97;100489.34;7384116;19;20285;-74
2022/08/15 11:44:27;;;;;;;22.15;15.13;;;;;;;25.85;86.32;100497.28;7384464;19;20015;-75
2022/08/15 11:47:08;;;;;;;25.80;17.17;;;;;;;25.51;88.33;100503.59;7380832;19;20003;-76
2022/08/15 11:49:47;;;;;;;24.52;14.95;;;;;;;25.64;88.08;100493.94;7381954;19;20036;-75
2022/08/15 11:52:32;;;;;;;24.70;17.10;;;;;;;25.61;88.35;100504.81;7375681;19;20044;-75
2022/08/15 11:55:30;;;;;;;20.23;14.23;;;;;;;25.80;87.19;100509.22;7375424;19;20098;-76
2022/08/15 11:58:04;;;;;;;24.70;15.88;;;;;;;25.71;87.44;100511.47;7381315;19;20010;-76
2022/08/15 12:00:44;;;;;;;22.80;16.08;;;;;;;25.82;87.76;100513.56;7378057;19;20043;-75
2022/08/15 12:03:27;;;;;;;23.77;15.38;;;;;;;25.93;87.20;100512.97;7375558;19;20422;-75
2022/08/15 12:06:24;;;;;;;19.45;13.98;;;;;;;25.98;86.41;100514.44;7383031;19;20015;-76
2022/08/15 12:09:16;;;;;;;18.75;14.52;;;;;;;25.98;88.22;100517.13;7381936;19;20421;-76
2022/08/15 12:12:24;;;;;;;28.90;16.70;;;;;;;25.92;87.40;100519.28;7381128;19;20019;-75
2022/08/15 12:15:16;;;;;;;22.52;15.00;;;;;;;25.92;87.79;100517.47;7380490;19;20006;-76
2022/08/15 12:18:08;;;;;;;23.45;16.55;;;;;;;25.75;88.43;100514.84;7382974;19;20070;-77
2022/08/15 12:21:11;;;;;;;26.85;18.85;;;;;;;25.49;91.44;100510.84;7380609;19;20010;-79
2022/08/15 12:23:55;;;;;;;24.35;16.23;;;;;;;25.86;90.08;100519.63;7374306;19;20042;-73
2022/08/15 12:26:30;;;;;;;28.15;18.42;;;;;;;25.82;90.41;100512.69;7373485;19;20362;-74
2022/08/15 12:29:18;;;;;;;24.77;17.75;;;;;;;25.91;90.13;100520.25;7376964;19;20103;-75